createdAt,value
2018-07-17T00:01:33.042Z,5.40
2018-07-17T00:04:04.988Z,5.43
2018-07-17T00:06:36.855Z,6.20
2018-07-17T00:09:09.975Z,5.70
2018-07-17T00:11:41.912Z,5.30
2018-07-17T00:14:14.043Z,5.53
2018-07-17T00:16:46.027Z,6.07
2018-07-17T00:19:17.970Z,5.20
2018-07-17T00:21:49.834Z,6.13
2018-07-17T00:24:22.219Z,6.13
2018-07-17T00:26:54.049Z,5.57
2018-07-17T00:29:26.186Z,5.33
2018-07-17T00:31:58.202Z,5.43
2018-07-17T00:34:30.264Z,5.63
2018-07-17T00:37:02.352Z,5.93
2018-07-17T00:39:34.633Z,5.40
2018-07-17T00:42:06.634Z,5.27
2018-07-17T00:44:38.530Z,6.40
2018-07-17T00:47:10.602Z,5.53
2018-07-17T00:49:42.538Z,5.90
2018-07-17T00:52:14.470Z,6.20
2018-07-17T00:54:46.602Z,5.47
2018-07-17T00:57:18.670Z,5.77
2018-07-17T00:59:50.622Z,6.77
2018-07-17T01:02:27.197Z,7.37
2018-07-17T01:05:03.950Z,5.57
2018-07-17T01:07:40.943Z,6.57
2018-07-17T01:10:17.941Z,5.60
2018-07-17T01:12:48.711Z,7.27
2018-07-17T01:15:26.830Z,5.90
2018-07-17T01:17:58.705Z,7.73
2018-07-17T01:20:31.381Z,11.50
2018-07-17T01:23:03.550Z,6.83
2018-07-17T01:25:35.909Z,6.80
2018-07-17T01:28:07.752Z,5.90
2018-07-17T01:30:39.689Z,5.60
2018-07-17T01:33:11.793Z,8.23
2018-07-17T01:35:43.692Z,5.57
2018-07-17T01:38:15.669Z,6.47
2018-07-17T01:40:47.497Z,6.60
2018-07-17T01:43:19.374Z,7.00
2018-07-17T01:45:51.302Z,6.30
2018-07-17T01:48:23.172Z,7.33
2018-07-17T01:50:55.209Z,6.10
2018-07-17T01:53:27.130Z,6.47
2018-07-17T01:55:59.137Z,6.17
2018-07-17T01:58:31.011Z,5.30
2018-07-17T02:01:03.590Z,5.80
2018-07-17T02:03:35.290Z,6.27
2018-07-17T02:06:07.694Z,5.90
2018-07-17T02:08:39.572Z,6.17
2018-07-17T02:11:11.693Z,5.70
2018-07-17T02:13:43.810Z,6.17
2018-07-17T02:16:15.830Z,5.83
2018-07-17T02:18:47.764Z,6.03
2018-07-17T02:21:19.647Z,5.73
2018-07-17T02:23:51.610Z,5.53
2018-07-17T02:26:23.552Z,5.77
2018-07-17T02:28:55.401Z,5.27
2018-07-17T02:31:27.303Z,6.33
2018-07-17T02:33:59.210Z,5.60
2018-07-17T02:36:31.230Z,5.93
2018-07-17T02:39:03.370Z,6.20
2018-07-17T02:41:35.327Z,6.07
2018-07-17T02:44:07.302Z,6.70
2018-07-17T02:46:38.740Z,6.57
2018-07-17T02:49:10.938Z,6.47
2018-07-17T02:51:42.924Z,6.10
2018-07-17T02:54:15.142Z,5.87
2018-07-17T02:56:47.071Z,6.13
2018-07-17T02:59:19.071Z,5.73
2018-07-17T03:01:51.650Z,6.17
2018-07-17T03:04:23.585Z,8.77
2018-07-17T03:06:55.534Z,5.87
2018-07-17T03:09:27.422Z,6.00
2018-07-17T03:11:59.302Z,6.10
2018-07-17T03:14:31.802Z,5.73
2018-07-17T03:17:03.701Z,5.90
2018-07-17T03:19:35.625Z,6.13
2018-07-17T03:22:07.694Z,6.43
2018-07-17T03:24:39.745Z,6.10
2018-07-17T03:27:11.763Z,6.23
2018-07-17T03:29:43.750Z,5.30
2018-07-17T03:32:15.236Z,5.93
2018-07-17T03:34:46.950Z,5.77
2018-07-17T03:37:18.871Z,5.50
2018-07-17T03:39:50.862Z,6.27
2018-07-17T03:42:22.793Z,6.77
2018-07-17T03:44:54.950Z,6.70
2018-07-17T03:47:27.631Z,6.80
2018-07-17T03:49:59.570Z,6.40
2018-07-17T03:52:31.611Z,6.67
2018-07-17T03:55:03.777Z,7.60
2018-07-17T03:57:35.805Z,7.67
2018-07-17T04:00:07.751Z,7.13
2018-07-17T04:02:39.714Z,6.90
2018-07-17T04:05:11.583Z,6.43
2018-07-17T04:07:43.570Z,6.50
2018-07-17T04:10:15.499Z,6.40
2018-07-17T04:12:47.491Z,7.30
2018-07-17T04:15:19.414Z,7.53
2018-07-17T04:17:51.310Z,7.03
2018-07-17T04:20:23.240Z,6.50
2018-07-17T04:22:55.407Z,6.93
2018-07-17T04:25:27.336Z,6.83
2018-07-17T04:27:59.353Z,6.40
2018-07-17T04:30:31.270Z,6.53
2018-07-17T04:33:03.174Z,7.13
2018-07-17T04:35:35.071Z,6.77
2018-07-17T04:38:07.406Z,6.73
2018-07-17T04:40:39.760Z,7.43
2018-07-17T04:43:11.681Z,6.90
2018-07-17T04:45:43.551Z,6.70
2018-07-17T04:48:16.301Z,6.80
2018-07-17T04:50:48.610Z,6.07
2018-07-17T04:53:21.010Z,6.40
2018-07-17T04:55:52.934Z,6.77
2018-07-17T04:58:25.290Z,7.60
2018-07-17T05:00:57.350Z,7.00
2018-07-17T05:03:29.405Z,6.53
2018-07-17T05:06:01.282Z,6.83
2018-07-17T05:08:33.341Z,6.63
2018-07-17T05:11:05.310Z,6.80
2018-07-17T05:13:37.272Z,6.97
2018-07-17T05:16:09.253Z,6.90
2018-07-17T05:18:41.746Z,6.27
2018-07-17T05:21:13.841Z,5.90
2018-07-17T05:23:45.818Z,6.03
2018-07-17T05:26:17.842Z,5.77
2018-07-17T05:28:49.727Z,6.13
2018-07-17T05:31:21.671Z,5.87
2018-07-17T05:33:53.551Z,6.13
2018-07-17T05:36:25.361Z,5.90
2018-07-17T05:38:57.340Z,5.73
2018-07-17T05:41:29.626Z,6.20
2018-07-17T05:44:01.586Z,6.17
2018-07-17T05:46:33.848Z,6.20
2018-07-17T05:49:05.729Z,6.20
2018-07-17T05:51:37.801Z,8.40
2018-07-17T05:54:09.945Z,7.57
2018-07-17T05:56:41.818Z,7.43
2018-07-17T05:59:13.809Z,7.73
2018-07-17T06:01:45.682Z,7.33
2018-07-17T06:04:17.569Z,7.40
2018-07-17T06:06:50.014Z,6.60
2018-07-17T06:09:21.897Z,8.00
2018-07-17T06:11:53.807Z,7.27
2018-07-17T06:14:26.194Z,6.87
2018-07-17T06:16:58.043Z,8.47
2018-07-17T06:19:30.112Z,6.77
2018-07-17T06:22:01.996Z,7.33
2018-07-17T06:24:34.310Z,7.13
2018-07-17T06:27:06.671Z,7.40
2018-07-17T06:29:38.630Z,7.77
2018-07-17T06:32:10.651Z,8.03
2018-07-17T06:34:42.768Z,8.83
2018-07-17T06:37:14.820Z,8.03
2018-07-17T06:39:47.180Z,6.73
2018-07-17T06:42:19.792Z,6.10
2018-07-17T06:44:51.885Z,6.27
2018-07-17T06:47:23.941Z,7.30
2018-07-17T06:49:55.941Z,6.77
2018-07-17T06:52:27.883Z,9.00
2018-07-17T06:54:59.930Z,7.93
2018-07-17T06:57:31.975Z,6.40
2018-07-17T07:00:04.001Z,7.17
2018-07-17T07:02:36.015Z,7.80
2018-07-17T07:05:08.132Z,8.10
2018-07-17T07:07:40.331Z,8.37
2018-07-17T07:10:12.395Z,8.47
2018-07-17T07:12:44.331Z,8.63
2018-07-17T07:15:19.259Z,8.40
2018-07-17T07:17:51.210Z,7.20
2018-07-17T07:20:23.145Z,7.37
2018-07-17T07:22:55.163Z,7.37
2018-07-17T07:25:27.162Z,7.57
2018-07-17T07:27:59.184Z,9.27
2018-07-17T07:30:31.129Z,7.63
2018-07-17T07:33:03.083Z,7.67
2018-07-17T07:35:35.089Z,7.20
2018-07-17T07:38:07.100Z,7.80
2018-07-17T07:40:39.145Z,7.40
2018-07-17T07:43:11.236Z,7.50
2018-07-17T07:45:44.942Z,8.23
2018-07-17T07:48:16.925Z,7.57
2018-07-17T07:50:48.870Z,7.90
2018-07-17T07:53:20.849Z,8.77
2018-07-17T07:55:52.757Z,8.77
2018-07-17T07:58:24.761Z,8.70
2018-07-17T08:00:56.669Z,8.20
2018-07-17T08:03:28.594Z,7.53
2018-07-17T08:06:00.492Z,8.73
2018-07-17T08:08:32.489Z,8.87
2018-07-17T08:11:05.444Z,7.63
2018-07-17T08:13:37.835Z,6.80
2018-07-17T08:16:09.849Z,7.40
2018-07-17T08:18:41.922Z,7.60
2018-07-17T08:21:13.847Z,7.90
2018-07-17T08:23:45.827Z,8.47
2018-07-17T08:26:17.345Z,6.97
2018-07-17T08:28:49.229Z,7.43
2018-07-17T08:31:21.189Z,7.20
2018-07-17T08:33:53.121Z,8.43
2018-07-17T08:36:25.023Z,7.07
2018-07-17T08:38:56.941Z,7.60
2018-07-17T08:41:28.907Z,6.70
2018-07-17T08:44:00.812Z,7.20
2018-07-17T08:46:32.641Z,7.30
2018-07-17T08:49:05.021Z,8.47
2018-07-17T08:51:37.048Z,8.20
2018-07-17T08:54:09.561Z,7.23
2018-07-17T08:56:41.460Z,7.63
2018-07-17T08:59:13.389Z,7.53
2018-07-17T09:01:45.386Z,7.00
2018-07-17T09:04:17.826Z,7.47
2018-07-17T09:06:50.345Z,7.97
2018-07-17T09:09:22.274Z,8.07
2018-07-17T09:11:54.841Z,7.40
2018-07-17T09:14:26.674Z,7.70
2018-07-17T09:16:58.494Z,6.67
2018-07-17T09:19:30.510Z,6.70
2018-07-17T09:22:02.430Z,7.13
2018-07-17T09:24:34.264Z,9.47
2018-07-17T09:27:06.213Z,7.77
2018-07-17T09:29:38.070Z,7.97
2018-07-17T09:32:09.918Z,8.23
2018-07-17T09:34:42.082Z,7.33
2018-07-17T09:37:13.874Z,5.77
2018-07-17T09:39:45.761Z,5.27
2018-07-17T09:42:17.846Z,4.90
2018-07-17T09:44:49.831Z,4.57
2018-07-17T09:47:21.666Z,4.17
2018-07-17T09:49:53.670Z,4.70
2018-07-17T09:52:25.445Z,5.03
2018-07-17T09:54:58.002Z,5.47
2018-07-17T09:57:29.897Z,5.13
2018-07-17T10:00:02.281Z,4.60
2018-07-17T10:02:34.104Z,4.37
2018-07-17T10:05:06.081Z,4.07
2018-07-17T10:07:38.082Z,3.83
2018-07-17T10:10:09.958Z,4.00
2018-07-17T10:12:42.010Z,3.63
2018-07-17T10:15:13.833Z,3.60
2018-07-17T10:17:45.798Z,4.20
2018-07-17T10:20:17.314Z,3.77
2018-07-17T10:22:49.455Z,3.80
2018-07-17T10:25:21.422Z,4.50
2018-07-17T10:27:53.427Z,3.47
2018-07-17T10:30:25.491Z,3.20
2018-07-17T10:32:56.955Z,3.23
2018-07-17T10:35:28.309Z,4.23
2018-07-17T10:38:00.105Z,3.27
2018-07-17T10:40:32.070Z,3.87
2018-07-17T10:43:04.012Z,3.73
2018-07-17T10:45:36.081Z,4.00
2018-07-17T10:48:08.627Z,3.17
2018-07-17T10:50:40.471Z,3.07
2018-07-17T10:53:12.310Z,3.60
2018-07-17T10:55:43.705Z,4.77
2018-07-17T10:58:15.613Z,3.30
2018-07-17T11:00:47.553Z,3.03
2018-07-17T11:03:19.377Z,3.33
2018-07-17T11:05:51.250Z,3.03
2018-07-17T11:08:23.104Z,3.80
2018-07-17T11:10:55.190Z,3.07
2018-07-17T11:13:27.030Z,3.40
2018-07-17T11:15:58.810Z,3.50
2018-07-17T11:18:30.682Z,3.97
2018-07-17T11:21:02.829Z,3.50
2018-07-17T11:23:34.716Z,5.60
2018-07-17T11:26:06.570Z,5.63
2018-07-17T11:28:38.550Z,3.60
2018-07-17T11:31:10.783Z,3.53
2018-07-17T11:33:42.708Z,3.97
2018-07-17T11:36:14.887Z,4.73
2018-07-17T11:38:47.084Z,13.10
2018-07-17T11:41:19.274Z,17.77
2018-07-17T11:43:51.054Z,6.07
2018-07-17T11:46:23.067Z,5.13
2018-07-17T11:48:54.829Z,4.30
2018-07-17T11:51:26.788Z,7.40
2018-07-17T11:53:58.577Z,7.30
2018-07-17T11:56:30.424Z,4.63
2018-07-17T11:59:02.293Z,4.40
2018-07-17T12:01:34.141Z,5.10
2018-07-17T12:04:06.352Z,6.77
2018-07-17T12:06:38.228Z,6.47
2018-07-17T12:09:11.029Z,4.57
2018-07-17T12:11:42.972Z,4.03
2018-07-17T12:14:14.890Z,4.00
2018-07-17T12:16:46.725Z,4.07
2018-07-17T12:19:18.534Z,4.10
2018-07-17T12:21:50.414Z,3.63
2018-07-17T12:24:22.320Z,2.93
2018-07-17T12:26:54.244Z,4.07
2018-07-17T12:29:26.063Z,2.60
2018-07-17T12:31:58.334Z,2.50
2018-07-17T12:34:30.225Z,2.93
2018-07-17T12:37:02.202Z,3.73
2018-07-17T12:39:34.001Z,3.17
2018-07-17T12:42:05.962Z,2.93
2018-07-17T12:44:37.894Z,2.83
2018-07-17T12:47:09.802Z,5.50
2018-07-17T12:49:42.010Z,3.00
2018-07-17T12:52:14.266Z,2.90
2018-07-17T12:54:46.020Z,3.07
2018-07-17T12:57:18.310Z,2.60
2018-07-17T12:59:50.130Z,2.60
2018-07-17T13:02:22.382Z,2.50
2018-07-17T13:04:55.214Z,2.63
2018-07-17T13:07:27.169Z,3.70
2018-07-17T13:09:59.312Z,2.40
2018-07-17T13:12:31.129Z,2.93
2018-07-17T13:15:02.854Z,2.90
2018-07-17T13:17:34.819Z,3.27
2018-07-17T13:20:07.146Z,2.73
2018-07-17T13:22:39.113Z,2.33
2018-07-17T13:25:11.070Z,3.73
2018-07-17T13:27:42.881Z,2.80
2018-07-17T13:30:15.110Z,4.77
2018-07-17T13:32:46.561Z,3.43
2018-07-17T13:35:18.705Z,2.93
2018-07-17T13:37:50.554Z,3.20
2018-07-17T13:40:22.330Z,2.80
2018-07-17T13:42:54.233Z,3.20
2018-07-17T13:45:25.629Z,2.90
2018-07-17T13:47:56.789Z,3.87
2018-07-17T13:50:28.400Z,3.00
2018-07-17T13:53:00.408Z,3.80
2018-07-17T13:55:31.796Z,3.27
2018-07-17T13:58:02.881Z,3.50
2018-07-17T14:00:34.442Z,3.47
2018-07-17T14:03:06.651Z,3.20
2018-07-17T14:05:38.489Z,3.43
2018-07-17T14:08:10.371Z,3.27
2018-07-17T14:10:42.222Z,3.00
2018-07-17T14:13:14.208Z,3.97
2018-07-17T14:15:46.177Z,4.07
2018-07-17T14:18:18.125Z,2.83
2018-07-17T14:20:50.229Z,3.20
2018-07-17T14:23:22.131Z,2.77
2018-07-17T14:25:54.384Z,2.70
2018-07-17T14:28:26.411Z,3.10
2018-07-17T14:30:58.312Z,2.70
2018-07-17T14:33:33.105Z,2.70
2018-07-17T14:36:05.390Z,2.90
2018-07-17T14:38:37.261Z,3.10
2018-07-17T14:41:09.731Z,2.90
2018-07-17T14:43:44.489Z,2.80
2018-07-17T14:46:18.469Z,3.80
2018-07-17T14:48:50.534Z,3.60
2018-07-17T14:51:22.493Z,2.97
2018-07-17T14:53:54.650Z,2.97
2018-07-17T14:56:26.629Z,3.00
2018-07-17T14:58:58.640Z,2.97
2018-07-17T15:01:30.651Z,3.83
2018-07-17T15:04:03.013Z,5.43
2018-07-17T15:06:34.961Z,4.40
2018-07-17T15:09:10.007Z,3.53
2018-07-17T15:11:41.909Z,2.60
2018-07-17T15:14:13.904Z,2.70
2018-07-17T15:16:46.003Z,2.90
2018-07-17T15:19:17.987Z,2.73
2018-07-17T15:21:50.029Z,2.63
2018-07-17T15:24:22.130Z,2.60
2018-07-17T15:26:54.027Z,3.13
2018-07-17T15:29:26.169Z,2.77
2018-07-17T15:31:58.107Z,2.70
2018-07-17T15:34:30.123Z,3.10
2018-07-17T15:37:02.112Z,2.40
2018-07-17T15:39:34.139Z,2.50
2018-07-17T15:42:06.410Z,5.87
2018-07-17T15:44:38.399Z,2.87
2018-07-17T15:47:10.683Z,3.00
2018-07-17T15:49:42.741Z,2.63
2018-07-17T15:52:14.648Z,2.60
2018-07-17T15:54:46.778Z,2.53
2018-07-17T15:57:18.730Z,3.30
2018-07-17T15:59:50.678Z,3.10
2018-07-17T16:02:22.504Z,2.57
2018-07-17T16:04:54.565Z,3.77
2018-07-17T16:07:26.495Z,3.10
2018-07-17T16:09:58.524Z,4.90
2018-07-17T16:12:30.326Z,5.67
2018-07-17T16:15:02.333Z,2.57
2018-07-17T16:17:34.361Z,2.30
2018-07-17T16:20:07.713Z,2.60
2018-07-17T16:22:39.691Z,2.30
2018-07-17T16:25:11.582Z,2.93
2018-07-17T16:27:43.502Z,2.30
2018-07-17T16:30:15.520Z,2.37
2018-07-17T16:32:47.552Z,2.60
2018-07-17T16:35:19.526Z,2.20
2018-07-17T16:37:51.510Z,3.87
2018-07-17T16:40:23.584Z,3.50
2018-07-17T16:42:55.541Z,3.90
2018-07-17T16:45:27.555Z,2.53
2018-07-17T16:47:59.499Z,2.33
2018-07-17T16:50:31.506Z,3.30
2018-07-17T16:53:03.550Z,2.53
2018-07-17T16:55:35.523Z,3.00
2018-07-17T16:58:07.415Z,3.07
2018-07-17T17:00:39.500Z,3.50
2018-07-17T17:03:11.860Z,3.20
2018-07-17T17:05:44.320Z,4.63
2018-07-17T17:08:16.213Z,3.20
2018-07-17T17:10:48.476Z,3.17
2018-07-17T17:13:20.524Z,3.60
2018-07-17T17:15:52.410Z,3.50
2018-07-17T17:18:24.341Z,3.17
2018-07-17T17:20:56.376Z,3.20
2018-07-17T17:23:28.353Z,2.90
2018-07-17T17:26:00.386Z,2.90
2018-07-17T17:28:32.301Z,3.87
2018-07-17T17:31:04.221Z,3.67
2018-07-17T17:33:36.226Z,4.50
2018-07-17T17:36:07.833Z,3.10
2018-07-17T17:38:39.709Z,4.10
2018-07-17T17:41:11.849Z,6.73
2018-07-17T17:43:43.965Z,7.70
2018-07-17T17:46:16.044Z,3.87
2018-07-17T17:48:47.954Z,4.33
2018-07-17T17:51:20.149Z,4.00
2018-07-17T17:53:52.112Z,3.77
2018-07-17T17:56:24.123Z,5.00
2018-07-17T17:58:56.206Z,3.87
2018-07-17T18:01:28.241Z,3.37
2018-07-17T18:04:00.275Z,4.33
2018-07-17T18:06:32.366Z,3.00
2018-07-17T18:09:05.243Z,3.53
2018-07-17T18:11:38.225Z,3.37
2018-07-17T18:14:10.213Z,3.93
2018-07-17T18:16:42.242Z,3.30
2018-07-17T18:19:14.220Z,3.93
2018-07-17T18:21:46.270Z,4.63
2018-07-17T18:24:18.127Z,4.47
2018-07-17T18:26:50.105Z,4.33
2018-07-17T18:29:22.439Z,2.90
2018-07-17T18:31:54.553Z,3.67
2018-07-17T18:34:26.555Z,4.00
2018-07-17T18:36:58.606Z,3.77
2018-07-17T18:39:30.503Z,3.77
2018-07-17T18:42:02.842Z,3.17
2018-07-17T18:44:34.683Z,5.13
2018-07-17T18:47:06.723Z,3.33
2018-07-17T18:49:38.621Z,3.63
2018-07-17T18:52:10.579Z,3.30
2018-07-17T18:54:42.496Z,3.37
2018-07-17T18:57:15.163Z,5.57
2018-07-17T18:59:47.034Z,3.47
2018-07-17T19:02:19.024Z,3.57
2018-07-17T19:04:50.969Z,3.80
2018-07-17T19:07:23.416Z,3.73
2018-07-17T19:09:55.394Z,5.03
2018-07-17T19:12:27.721Z,3.67
2018-07-17T19:14:59.614Z,4.77
2018-07-17T19:17:31.631Z,3.37
2018-07-17T19:20:03.954Z,4.07
2018-07-17T19:22:36.034Z,3.53
2018-07-17T19:25:08.303Z,3.77
2018-07-17T19:27:40.317Z,3.70
2018-07-17T19:30:12.640Z,3.83
2018-07-17T19:32:45.583Z,3.50
2018-07-17T19:35:17.851Z,3.87
2018-07-17T19:37:50.487Z,3.57
2018-07-17T19:40:24.150Z,3.30
2018-07-17T19:42:56.553Z,3.37
2018-07-17T19:45:28.510Z,3.50
2018-07-17T19:48:00.820Z,3.30
2018-07-17T19:50:32.865Z,4.53
2018-07-17T19:53:04.959Z,4.80
2018-07-17T19:55:37.246Z,4.63
2018-07-17T19:58:11.023Z,5.10
2018-07-17T20:00:43.084Z,7.63
2018-07-17T20:03:16.484Z,4.87
2018-07-17T20:05:48.595Z,5.00
2018-07-17T20:08:21.771Z,4.93
2018-07-17T20:10:53.753Z,4.30
2018-07-17T20:13:26.044Z,4.77
2018-07-17T20:15:58.254Z,5.20
2018-07-17T20:18:30.213Z,4.70
2018-07-17T20:21:02.101Z,4.53
2018-07-17T20:23:33.993Z,3.97
2018-07-17T20:26:06.430Z,3.70
2018-07-17T20:28:38.349Z,4.30
2018-07-17T20:31:10.351Z,3.80
2018-07-17T20:33:42.232Z,5.53
2018-07-17T20:36:13.523Z,4.20
2018-07-17T20:38:45.683Z,4.03
2018-07-17T20:41:18.144Z,4.23
2018-07-17T20:43:50.022Z,3.50
2018-07-17T20:46:21.982Z,6.13
2018-07-17T20:48:53.825Z,5.00
2018-07-17T20:51:25.656Z,3.33
2018-07-17T20:53:57.933Z,3.43
2018-07-17T20:56:29.683Z,3.30
2018-07-17T20:59:01.530Z,3.30
2018-07-17T21:01:33.742Z,3.40
2018-07-17T21:04:06.122Z,3.50
2018-07-17T21:06:37.949Z,5.07
2018-07-17T21:09:12.270Z,5.43
2018-07-17T21:11:44.173Z,4.83
2018-07-17T21:14:15.942Z,4.37
2018-07-17T21:16:47.690Z,3.87
2018-07-17T21:19:20.215Z,4.03
2018-07-17T21:21:51.941Z,4.10
2018-07-17T21:24:23.808Z,3.83
2018-07-17T21:26:55.590Z,4.00
2018-07-17T21:29:27.770Z,8.93
2018-07-17T21:31:59.581Z,3.90
2018-07-17T21:34:31.593Z,3.80
2018-07-17T21:37:04.010Z,4.60
2018-07-17T21:39:35.902Z,4.57
2018-07-17T21:42:08.050Z,4.60
2018-07-17T21:44:39.922Z,4.20
2018-07-17T21:47:11.710Z,4.43
2018-07-17T21:49:43.679Z,5.40
2018-07-17T21:52:15.835Z,4.63
2018-07-17T21:54:47.705Z,6.87
2018-07-17T21:57:19.495Z,3.93
2018-07-17T21:59:51.257Z,4.20
2018-07-17T22:02:23.063Z,4.93
2018-07-17T22:04:55.767Z,3.83
2018-07-17T22:07:27.570Z,4.13
2018-07-17T22:09:59.563Z,3.87
2018-07-17T22:12:32.002Z,3.67
2018-07-17T22:15:04.039Z,4.07
2018-07-17T22:17:35.839Z,3.57
2018-07-17T22:20:07.616Z,4.90
2018-07-17T22:22:39.389Z,4.40
2018-07-17T22:25:11.850Z,5.20
2018-07-17T22:27:43.752Z,4.87
2018-07-17T22:30:15.450Z,5.40
2018-07-17T22:32:47.093Z,5.33
2018-07-17T22:35:19.048Z,9.07
2018-07-17T22:37:51.126Z,5.90
2018-07-17T22:40:22.932Z,5.40
2018-07-17T22:42:54.669Z,5.13
2018-07-17T22:45:26.708Z,4.10
2018-07-17T22:47:58.516Z,3.83
2018-07-17T22:50:30.389Z,5.53
2018-07-17T22:53:02.209Z,4.33
2018-07-17T22:55:34.064Z,4.17
2018-07-17T22:58:05.712Z,7.20
2018-07-17T23:00:37.616Z,4.57
2018-07-17T23:03:09.385Z,4.20
2018-07-17T23:05:41.485Z,3.57
2018-07-17T23:08:13.311Z,4.23
2018-07-17T23:10:45.319Z,4.07
2018-07-17T23:13:16.609Z,3.87
2018-07-17T23:15:48.149Z,4.30
2018-07-17T23:18:19.934Z,3.87
2018-07-17T23:20:51.770Z,4.00
2018-07-17T23:23:23.878Z,4.47
2018-07-17T23:25:55.775Z,4.30
2018-07-17T23:28:27.453Z,4.53
2018-07-17T23:30:59.282Z,4.20
2018-07-17T23:33:32.091Z,5.33
2018-07-17T23:36:03.950Z,5.30
2018-07-17T23:38:35.729Z,4.57
2018-07-17T23:41:07.629Z,4.40
2018-07-17T23:43:39.402Z,4.37
2018-07-17T23:46:11.288Z,4.80
2018-07-17T23:48:43.648Z,8.10
2018-07-17T23:51:15.539Z,5.20
2018-07-17T23:53:47.337Z,5.10
2018-07-17T23:56:19.222Z,4.53
2018-07-17T23:58:51.002Z,4.63
